Time;durP1;ratioP1;P1;durP2;ratioP2;P2;SDS_P1;SDS_P2;PMS_P1;PMS_P2;Temp;Humidity;BMP_temperature;BMP_pressure;BME280_temperature;BME280_humidity;BME280_pressure;Samples;Min_cycle;Max_cycle;Signal;HPM_P1;HPM_P2
2023/04/27 00:00:43;;;;;;;3.42;2.38;;;10.60;99.90;;;;;;4996155;28;20022;-77
2023/04/27 00:03:09;;;;;;;6.38;2.00;;;10.60;99.90;;;;;;5001594;28;20030;-76
2023/04/27 00:05:37;;;;;;;5.50;2.20;;;10.60;99.90;;;;;;4989648;28;20400;-77
2023/04/27 00:08:04;;;;;;;4.82;2.30;;;10.60;99.90;;;;;;4995535;28;20030;-76
2023/04/27 00:10:29;;;;;;;4.45;2.13;;;10.60;99.90;;;;;;4994828;28;20471;-76
2023/04/27 00:12:55;;;;;;;4.63;2.55;;;10.50;99.90;;;;;;4994657;28;20045;-76
2023/04/27 00:15:21;;;;;;;4.95;2.25;;;10.50;99.90;;;;;;4996229;28;20022;-77
2023/04/27 00:17:47;;;;;;;4.25;2.22;;;10.40;99.90;;;;;;4995559;28;20093;-76
2023/04/27 00:20:12;;;;;;;4.45;2.20;;;10.40;99.90;;;;;;4995953;28;20457;-76
2023/04/27 00:22:38;;;;;;;8.48;2.53;;;10.40;99.90;;;;;;4995482;28;20035;-76
2023/04/27 00:25:05;;;;;;;2.78;1.88;;;10.30;99.90;;;;;;4994820;28;20031;-76
2023/04/27 00:27:31;;;;;;;5.50;2.53;;;10.20;99.90;;;;;;4994251;28;20029;-76
2023/04/27 00:29:56;;;;;;;4.22;2.40;;;10.10;99.90;;;;;;4996924;28;20448;-76
2023/04/27 00:32:22;;;;;;;5.35;2.38;;;10.10;99.90;;;;;;4996209;28;20034;-76
2023/04/27 00:34:47;;;;;;;3.83;2.38;;;10.00;99.90;;;;;;4995698;28;20034;-76
2023/04/27 00:37:13;;;;;;;5.13;2.45;;;9.90;99.90;;;;;;4994942;28;20455;-76
2023/04/27 00:39:38;;;;;;;7.10;2.70;;;9.80;99.90;;;;;;4995580;28;20456;-76
2023/04/27 00:42:05;;;;;;;5.72;2.25;;;9.80;99.90;;;;;;4995341;28;20487;-76
2023/04/27 00:44:30;;;;;;;5.13;2.30;;;9.70;99.90;;;;;;4994428;28;20030;-77
2023/04/27 00:46:57;;;;;;;6.70;2.78;;;9.70;99.90;;;;;;4994820;28;20030;-77
2023/04/27 00:49:25;;;;;;;4.78;2.80;;;9.60;99.90;;;;;;4994432;28;20046;-77
2023/04/27 00:51:50;;;;;;;6.10;2.83;;;9.60;99.90;;;;;;4995078;28;20027;-77
2023/04/27 00:54:19;;;;;;;4.80;2.60;;;9.50;99.90;;;;;;4995692;28;20037;-77
2023/04/27 00:56:48;;;;;;;5.53;3.22;;;9.40;99.90;;;;;;4994220;28;20034;-76
2023/04/27 00:59:14;;;;;;;6.18;3.25;;;9.50;99.90;;;;;;4994625;28;20120;-76
2023/04/27 01:01:40;;;;;;;9.55;3.20;;;9.40;99.90;;;;;;4994012;28;20077;-76
2023/04/27 01:04:06;;;;;;;6.80;2.75;;;9.40;99.90;;;;;;4995610;28;20555;-76
2023/04/27 01:06:31;;;;;;;8.52;3.30;;;9.40;99.90;;;;;;4995157;28;20097;-77
2023/04/27 01:08:57;;;;;;;5.85;3.80;;;9.50;99.90;;;;;;4994396;28;20117;-76
2023/04/27 01:11:23;;;;;;;5.20;3.03;;;9.40;99.90;;;;;;4994393;28;20034;-77
2023/04/27 01:13:48;;;;;;;6.22;3.13;;;9.40;99.90;;;;;;4994608;28;20029;-76
2023/04/27 01:16:17;;;;;;;5.72;3.22;;;9.50;99.90;;;;;;4994304;28;20026;-77
2023/04/27 01:18:43;;;;;;;4.82;3.00;;;9.50;99.90;;;;;;4994129;28;20495;-77
2023/04/27 01:21:09;;;;;;;6.88;3.50;;;9.50;99.90;;;;;;4994264;28;20054;-77
2023/04/27 01:23:34;;;;;;;6.60;3.15;;;9.50;99.90;;;;;;4994355;28;20038;-77
2023/04/27 01:26:00;;;;;;;5.88;2.90;;;9.50;99.90;;;;;;4995180;28;20031;-77
2023/04/27 01:28:26;;;;;;;6.57;3.20;;;9.40;99.90;;;;;;4995272;28;20022;-77
2023/04/27 01:30:51;;;;;;;7.03;3.10;;;9.40;99.90;;;;;;4993698;28;20361;-77
2023/04/27 01:33:17;;;;;;;5.97;3.20;;;9.40;99.90;;;;;;4995234;28;20026;-76
2023/04/27 01:35:43;;;;;;;7.82;3.50;;;9.50;99.90;;;;;;4993412;28;20023;-76
2023/04/27 01:38:08;;;;;;;7.32;3.20;;;9.50;99.90;;;;;;4994817;28;20033;-76
2023/04/27 01:40:34;;;;;;;9.68;3.38;;;9.50;99.90;;;;;;4993175;28;20030;-76
2023/04/27 01:42:59;;;;;;;6.97;3.20;;;9.60;99.90;;;;;;4995090;28;20026;-76
2023/04/27 01:45:25;;;;;;;4.60;2.78;;;9.60;99.90;;;;;;4993588;28;20026;-76
2023/04/27 01:47:52;;;;;;;5.82;2.78;;;9.60;99.90;;;;;;4994651;28;20682;-76
2023/04/27 01:50:17;;;;;;;5.13;3.60;;;9.60;99.90;;;;;;4994938;28;20113;-77
2023/04/27 01:52:43;;;;;;;5.72;3.13;;;9.60;99.90;;;;;;4994118;28;20117;-77
2023/04/27 01:55:09;;;;;;;7.63;3.28;;;9.60;99.90;;;;;;4994594;28;20124;-76
2023/04/27 01:57:35;;;;;;;6.78;3.42;;;9.60;99.90;;;;;;4993725;28;20559;-76
2023/04/27 02:00:01;;;;;;;5.85;3.03;;;9.60;99.90;;;;;;4994089;28;20105;-76
2023/04/27 02:02:26;;;;;;;3.90;2.83;;;9.50;99.90;;;;;;4994081;28;20034;-76
2023/04/27 02:04:52;;;;;;;7.47;3.40;;;9.50;99.90;;;;;;4992745;28;20254;-77
2023/04/27 02:07:17;;;;;;;4.63;2.83;;;9.40;99.90;;;;;;4993277;28;20460;-76
2023/04/27 02:09:43;;;;;;;4.10;3.15;;;9.40;99.90;;;;;;4993846;28;20412;-76
2023/04/27 02:12:08;;;;;;;5.82;3.28;;;9.40;99.90;;;;;;4992869;28;20034;-76
2023/04/27 02:14:34;;;;;;;5.72;3.05;;;9.50;99.90;;;;;;4992379;28;20096;-76
2023/04/27 02:17:00;;;;;;;6.43;3.30;;;9.50;99.90;;;;;;4992888;28;20113;-76
2023/04/27 02:19:25;;;;;;;8.00;3.35;;;9.40;99.90;;;;;;4992890;28;20034;-76
2023/04/27 02:21:51;;;;;;;5.28;3.38;;;9.40;99.90;;;;;;4992154;28;20038;-76
2023/04/27 02:24:17;;;;;;;4.20;2.67;;;9.40;99.90;;;;;;4993049;28;20022;-76
2023/04/27 02:26:43;;;;;;;9.05;3.47;;;9.40;99.90;;;;;;4993558;28;20097;-76
2023/04/27 03:23:01;;;;;;;4.72;2.58;;;9.10;99.90;;;;;;4992238;28;20045;-76
2023/04/27 03:25:27;;;;;;;3.85;2.30;;;9.00;99.90;;;;;;4993051;28;20035;-77
2023/04/27 03:27:52;;;;;;;6.60;2.42;;;9.10;99.90;;;;;;4992665;28;20025;-76
2023/04/27 03:30:18;;;;;;;5.93;2.58;;;9.00;99.90;;;;;;4992040;28;20018;-77
2023/04/27 03:32:43;;;;;;;3.88;2.50;;;9.00;99.90;;;;;;4992978;28;20084;-76
2023/04/27 03:35:09;;;;;;;5.25;2.75;;;9.00;99.90;;;;;;4992459;28;20499;-76
2023/04/27 03:37:35;;;;;;;10.52;4.70;;;9.00;99.90;;;;;;4991661;28;20162;-75
2023/04/27 03:40:00;;;;;;;3.58;2.38;;;9.00;99.90;;;;;;4990969;28;20026;-75
2023/04/27 03:42:26;;;;;;;2.95;2.20;;;9.00;99.90;;;;;;4994620;28;20035;-75
2023/04/27 03:44:51;;;;;;;4.43;2.10;;;9.00;99.90;;;;;;4994632;28;20467;-76
2023/04/27 03:47:17;;;;;;;4.60;2.30;;;9.00;99.90;;;;;;4995129;28;20451;-76
2023/04/27 03:49:42;;;;;;;4.68;2.35;;;9.00;99.90;;;;;;4994431;28;20057;-75
2023/04/27 03:52:08;;;;;;;3.88;2.10;;;8.90;99.90;;;;;;4995985;28;20097;-76
2023/04/27 03:54:33;;;;;;;3.15;2.40;;;9.00;99.90;;;;;;4995132;28;20085;-76
2023/04/27 03:57:01;;;;;;;7.18;2.13;;;9.00;99.90;;;;;;4994994;28;20491;-76
2023/04/27 03:59:29;;;;;;;4.40;2.15;;;8.90;99.90;;;;;;4995380;28;20030;-76
2023/04/27 04:01:54;;;;;;;5.40;2.13;;;8.90;99.90;;;;;;4995976;28;20038;-76
2023/04/27 04:04:20;;;;;;;4.65;2.10;;;9.00;99.90;;;;;;4996039;28;20452;-76
2023/04/27 04:06:45;;;;;;;7.90;2.28;;;8.80;99.90;;;;;;5002754;28;20054;-76
2023/04/27 04:09:11;;;;;;;6.78;2.38;;;8.80;99.90;;;;;;4995766;28;20035;-78
2023/04/27 04:11:37;;;;;;;4.75;1.80;;;8.90;99.90;;;;;;4997187;28;20066;-76
2023/04/27 04:14:02;;;;;;;5.28;2.13;;;8.90;99.90;;;;;;5006431;28;20037;-76
2023/04/27 04:16:28;;;;;;;7.45;1.98;;;8.90;99.90;;;;;;4995220;28;20053;-76
2023/04/27 04:18:53;;;;;;;3.97;2.17;;;8.80;99.90;;;;;;4980357;28;20019;-76
2023/04/27 04:21:19;;;;;;;3.97;2.13;;;8.80;99.90;;;;;;4996022;28;20038;-76
2023/04/27 04:23:45;;;;;;;6.10;2.20;;;8.80;99.90;;;;;;4995512;28;20150;-76
2023/04/27 04:26:11;;;;;;;3.35;2.08;;;8.90;99.90;;;;;;4994553;28;20026;-76
2023/04/27 04:28:37;;;;;;;4.20;2.30;;;8.90;99.90;;;;;;4995981;28;20030;-76
2023/04/27 04:31:05;;;;;;;5.28;2.35;;;8.90;99.90;;;;;;4995290;28;20049;-76
2023/04/27 04:33:31;;;;;;;2.88;1.98;;;8.90;99.90;;;;;;4986339;28;20027;-76
2023/04/27 04:35:57;;;;;;;5.35;2.00;;;8.90;99.90;;;;;;4994961;28;20464;-76
2023/04/27 04:38:23;;;;;;;3.33;2.10;;;8.80;99.90;;;;;;4995497;28;20030;-76
2023/04/27 04:40:49;;;;;;;4.40;2.05;;;8.80;99.90;;;;;;4994156;28;20027;-76
2023/04/27 04:43:15;;;;;;;4.07;2.03;;;8.80;99.90;;;;;;4994267;28;20037;-76
2023/04/27 04:45:41;;;;;;;8.93;2.20;;;8.80;99.90;;;;;;4994885;28;20042;-76
2023/04/27 04:48:07;;;;;;;5.95;2.30;;;8.80;99.90;;;;;;4995633;28;20081;-76
2023/04/27 04:50:33;;;;;;;3.63;2.10;;;8.70;99.90;;;;;;4995751;28;20391;-77
2023/04/27 04:52:58;;;;;;;3.50;1.77;;;8.70;99.90;;;;;;4994113;28;20054;-77
2023/04/27 04:55:27;;;;;;;5.88;2.03;;;8.80;99.90;;;;;;4993895;28;20982;-76
2023/04/27 04:57:53;;;;;;;3.40;2.05;;;8.80;99.90;;;;;;4993344;28;20030;-76
2023/04/27 05:00:18;;;;;;;6.45;2.30;;;8.70;99.90;;;;;;4996807;28;20031;-76
2023/04/27 05:02:44;;;;;;;4.60;2.35;;;8.70;99.90;;;;;;4993222;28;20041;-75
2023/04/27 05:05:09;;;;;;;7.65;2.20;;;8.70;99.90;;;;;;4995498;28;20022;-76
2023/04/27 05:07:35;;;;;;;4.72;2.13;;;8.70;99.90;;;;;;5009645;28;20113;-78
2023/04/27 05:10:01;;;;;;;4.10;2.08;;;8.70;99.90;;;;;;4993358;28;20041;-76
2023/04/27 05:12:26;;;;;;;4.40;2.20;;;8.70;99.90;;;;;;4988169;28;20030;-76
2023/04/27 05:14:52;;;;;;;3.75;2.13;;;8.70;99.90;;;;;;4992892;28;20027;-75
2023/04/27 05:17:18;;;;;;;3.28;2.25;;;8.70;99.90;;;;;;4993488;28;20486;-76
2023/04/27 05:19:44;;;;;;;9.18;2.33;;;8.60;99.90;;;;;;4992077;28;20026;-77
2023/04/27 05:22:09;;;;;;;38.72;14.43;;;8.70;99.90;;;;;;5002698;28;20026;-77
2023/04/27 05:24:35;;;;;;;11.35;5.00;;;8.70;99.90;;;;;;5021180;28;20038;-76
2023/04/27 05:27:01;;;;;;;6.72;2.95;;;8.80;99.90;;;;;;5013415;28;20203;-77
2023/04/27 05:29:27;;;;;;;5.03;2.35;;;8.80;99.90;;;;;;4994108;28;20534;-77
2023/04/27 05:31:55;;;;;;;5.05;2.25;;;8.80;99.90;;;;;;4998952;28;20052;-76
2023/04/27 05:34:20;;;;;;;5.40;2.08;;;8.90;99.90;;;;;;5001010;28;20026;-76
2023/04/27 05:36:46;;;;;;;4.72;2.40;;;8.90;99.90;;;;;;5002162;28;20022;-76
2023/04/27 05:39:12;;;;;;;5.60;2.67;;;8.90;99.90;;;;;;4992687;28;20034;-76
2023/04/27 05:41:38;;;;;;;5.60;2.10;;;9.00;99.90;;;;;;5002468;28;20057;-77
2023/04/27 05:44:04;;;;;;;6.75;2.40;;;9.00;99.90;;;;;;5001390;28;20022;-77
2023/04/27 05:46:29;;;;;;;9.63;2.60;;;9.00;99.90;;;;;;5001032;28;20018;-76
2023/04/27 05:48:55;;;;;;;4.90;2.30;;;9.10;99.90;;;;;;4994671;28;20038;-76
2023/04/27 05:51:21;;;;;;;7.20;2.63;;;9.10;99.90;;;;;;4999305;28;20046;-76
2023/04/27 05:53:47;;;;;;;4.78;2.05;;;9.10;99.90;;;;;;4998877;28;20080;-76
2023/04/27 05:56:13;;;;;;;6.15;2.30;;;9.20;99.90;;;;;;4993290;28;20031;-79
2023/04/27 05:58:38;;;;;;;4.13;2.15;;;9.20;99.90;;;;;;4993813;28;20026;-77
2023/04/27 06:01:04;;;;;;;5.70;2.50;;;9.30;99.90;;;;;;4992075;28;20030;-77
2023/04/27 06:03:31;;;;;;;6.55;2.33;;;9.40;99.90;;;;;;4978821;28;20026;-76
2023/04/27 06:05:58;;;;;;;6.75;2.35;;;9.40;99.90;;;;;;5001029;28;20067;-76
2023/04/27 06:08:23;;;;;;;6.63;1.90;;;9.40;99.90;;;;;;4997863;28;20050;-76
2023/04/27 06:10:50;;;;;;;6.10;2.25;;;9.40;99.90;;;;;;4993117;28;20065;-76
2023/04/27 06:13:16;;;;;;;6.82;2.38;;;9.40;99.90;;;;;;4992544;28;20491;-76
2023/04/27 06:15:42;;;;;;;4.47;2.55;;;9.50;99.90;;;;;;4992335;28;20076;-77
2023/04/27 06:18:08;;;;;;;4.72;2.10;;;9.50;99.90;;;;;;4992004;28;20031;-77
2023/04/27 06:20:34;;;;;;;3.78;2.35;;;9.50;99.90;;;;;;4992309;28;20439;-78
2023/04/27 06:23:00;;;;;;;3.85;2.67;;;9.50;99.90;;;;;;4991910;28;20030;-79
2023/04/27 06:25:29;;;;;;;5.43;2.30;;;9.60;99.90;;;;;;4992631;28;20085;-77
2023/04/27 06:27:55;;;;;;;5.55;2.33;;;9.70;99.90;;;;;;4982605;28;20034;-78
2023/04/27 06:30:21;;;;;;;6.40;2.40;;;9.70;99.90;;;;;;4993747;28;20046;-77
2023/04/27 06:32:47;;;;;;;5.18;2.35;;;9.70;99.90;;;;;;4991742;28;20073;-77
2023/04/27 06:35:13;;;;;;;4.43;2.50;;;9.80;99.90;;;;;;4992257;28;20728;-78
2023/04/27 06:37:39;;;;;;;5.55;2.38;;;9.80;99.90;;;;;;4992206;28;20049;-77
2023/04/27 06:40:05;;;;;;;5.22;2.45;;;9.80;99.90;;;;;;4991399;28;20679;-77
2023/04/27 06:42:31;;;;;;;5.40;2.53;;;9.80;99.90;;;;;;4992055;28;20061;-77
2023/04/27 06:44:57;;;;;;;4.18;2.60;;;9.80;99.90;;;;;;4992557;28;20452;-77
2023/04/27 06:47:23;;;;;;;3.38;2.53;;;9.80;99.90;;;;;;4988486;28;20033;-78
2023/04/27 06:49:49;;;;;;;6.82;2.30;;;9.80;99.90;;;;;;4995332;28;20026;-78
2023/04/27 06:52:14;;;;;;;8.40;2.60;;;9.80;99.90;;;;;;4991601;28;20500;-77
2023/04/27 06:54:40;;;;;;;5.05;2.53;;;9.70;99.90;;;;;;4993008;28;20034;-77
2023/04/27 06:57:06;;;;;;;6.90;2.33;;;9.70;99.90;;;;;;4981849;28;20353;-78
2023/04/27 06:59:31;;;;;;;9.70;3.08;;;9.60;99.90;;;;;;4996489;28;20409;-76
2023/04/27 07:01:57;;;;;;;4.47;2.35;;;9.70;99.90;;;;;;4990771;28;20117;-76
2023/04/27 07:04:23;;;;;;;4.40;2.65;;;9.80;99.90;;;;;;4992790;28;20129;-78
2023/04/27 07:06:49;;;;;;;5.32;2.55;;;9.80;99.90;;;;;;5005464;28;20032;-77
2023/04/27 07:09:14;;;;;;;5.60;2.63;;;9.90;99.90;;;;;;5000909;28;20068;-77
2023/04/27 07:11:40;;;;;;;9.77;3.13;;;9.80;99.90;;;;;;4996264;28;20023;-77
2023/04/27 07:14:06;;;;;;;8.50;2.90;;;9.90;99.90;;;;;;4992065;28;20234;-79
2023/04/27 07:16:31;;;;;;;5.80;2.28;;;9.80;99.90;;;;;;4993265;28;20109;-78
2023/04/27 07:18:57;;;;;;;8.18;2.83;;;9.90;99.90;;;;;;4996264;28;20038;-77
2023/04/27 07:21:22;;;;;;;6.22;2.83;;;9.80;99.90;;;;;;5009483;28;20030;-77
2023/04/27 07:23:48;;;;;;;7.97;3.15;;;9.80;99.90;;;;;;4996296;28;20065;-76
2023/04/27 07:26:14;;;;;;;7.20;2.92;;;9.90;99.90;;;;;;4995225;28;20030;-78
2023/04/27 07:28:40;;;;;;;6.68;2.90;;;9.90;99.90;;;;;;4993705;28;20149;-78
2023/04/27 07:31:06;;;;;;;6.30;2.75;;;9.90;99.90;;;;;;4994643;28;20153;-78
2023/04/27 07:33:33;;;;;;;3.72;2.50;;;9.90;99.90;;;;;;4998058;28;20034;-78
2023/04/27 07:35:58;;;;;;;6.88;3.45;;;10.00;99.90;;;;;;4992658;28;20037;-78
2023/04/27 07:38:24;;;;;;;6.38;2.40;;;10.10;99.90;;;;;;4997601;28;20031;-78
2023/04/27 07:40:51;;;;;;;5.20;2.97;;;10.20;99.90;;;;;;4994987;28;20085;-78
2023/04/27 07:43:17;;;;;;;7.45;2.70;;;10.30;99.90;;;;;;4995468;28;20449;-76
2023/04/27 07:45:42;;;;;;;6.15;2.90;;;10.30;99.90;;;;;;4995994;28;20106;-77
2023/04/27 07:48:09;;;;;;;4.78;2.50;;;10.30;99.90;;;;;;4994841;28;20037;-77
2023/04/27 07:50:35;;;;;;;7.50;2.83;;;10.30;99.90;;;;;;4995775;28;20042;-77
2023/04/27 07:53:00;;;;;;;4.75;2.63;;;10.40;99.90;;;;;;4995870;28;20057;-77
2023/04/27 07:55:26;;;;;;;7.90;3.05;;;10.40;99.90;;;;;;4995665;28;20130;-77
2023/04/27 07:57:52;;;;;;;7.25;3.30;;;10.50;99.90;;;;;;4991950;28;20030;-77
2023/04/27 08:00:18;;;;;;;5.47;2.90;;;10.50;99.90;;;;;;4996147;28;20033;-77
2023/04/27 08:02:44;;;;;;;5.10;2.78;;;10.60;99.90;;;;;;4995044;28;20105;-77
2023/04/27 08:05:10;;;;;;;7.18;3.10;;;10.60;99.90;;;;;;4995593;28;20031;-77
2023/04/27 08:07:36;;;;;;;6.20;2.90;;;10.70;99.90;;;;;;4996304;28;20045;-77
2023/04/27 08:10:01;;;;;;;4.22;2.63;;;10.80;99.90;;;;;;5000931;28;20110;-77
2023/04/27 08:12:27;;;;;;;5.38;2.42;;;10.80;99.90;;;;;;4994873;28;20447;-77
2023/04/27 08:14:53;;;;;;;7.18;3.15;;;10.80;99.90;;;;;;4997634;28;20065;-77
2023/04/27 08:17:20;;;;;;;8.30;2.65;;;10.80;99.90;;;;;;5001065;28;20031;-76
2023/04/27 08:19:46;;;;;;;5.53;2.90;;;10.90;99.90;;;;;;4995518;28;20031;-76
2023/04/27 08:22:11;;;;;;;5.63;2.55;;;11.00;99.90;;;;;;4993808;28;20030;-76
2023/04/27 08:24:37;;;;;;;6.40;2.70;;;11.00;99.90;;;;;;4996219;28;20034;-78
2023/04/27 08:27:02;;;;;;;8.23;2.85;;;11.10;99.90;;;;;;4991518;28;20027;-78
2023/04/27 08:29:28;;;;;;;5.80;2.85;;;11.10;99.90;;;;;;4988317;28;20463;-77
2023/04/27 08:31:55;;;;;;;5.68;3.03;;;11.20;99.90;;;;;;4998022;28;20038;-78
2023/04/27 08:34:21;;;;;;;7.57;2.90;;;11.20;99.90;;;;;;4996044;28;20027;-76
2023/04/27 08:36:47;;;;;;;6.63;2.90;;;11.30;99.90;;;;;;4995375;28;20034;-77
2023/04/27 08:39:12;;;;;;;9.18;3.03;;;11.40;99.90;;;;;;4995851;28;20041;-78
2023/04/27 08:41:42;;;;;;;8.68;2.80;;;11.40;99.90;;;;;;4996372;28;20065;-78
2023/04/27 08:44:08;;;;;;;5.97;2.55;;;11.50;99.90;;;;;;4995292;28;20165;-78
2023/04/27 08:46:33;;;;;;;6.53;2.88;;;11.50;99.90;;;;;;4996138;28;20026;-78
2023/04/27 08:48:59;;;;;;;6.75;2.58;;;11.60;99.90;;;;;;4995215;28;20089;-78
2023/04/27 08:51:26;;;;;;;6.13;2.85;;;11.60;99.90;;;;;;4994563;28;20054;-78
2023/04/27 08:53:56;;;;;;;8.40;2.85;;;11.60;99.90;;;;;;4994006;28;20114;-77
2023/04/27 08:56:27;;;;;;;6.85;2.83;;;11.70;99.90;;;;;;4994716;28;20476;-78
2023/04/27 08:58:53;;;;;;;5.78;2.90;;;11.80;99.90;;;;;;4993711;28;20121;-78
2023/04/27 09:01:19;;;;;;;9.15;3.22;;;11.90;99.90;;;;;;4995351;28;20030;-77
2023/04/27 09:03:45;;;;;;;7.88;3.05;;;11.90;99.90;;;;;;4995479;28;20050;-78
2023/04/27 09:06:12;;;;;;;5.53;2.72;;;11.90;99.90;;;;;;4993462;28;20023;-77
2023/04/27 09:08:41;;;;;;;5.88;2.30;;;11.90;99.90;;;;;;4994663;28;20034;-78
2023/04/27 09:11:07;;;;;;;6.45;2.55;;;11.90;99.90;;;;;;4994511;28;20464;-77
2023/04/27 09:13:37;;;;;;;7.53;2.80;;;12.00;99.90;;;;;;4994241;28;20025;-78
2023/04/27 09:16:03;;;;;;;6.30;2.58;;;12.10;99.90;;;;;;4994694;28;20034;-78
2023/04/27 09:18:28;;;;;;;4.95;2.60;;;12.20;99.90;;;;;;4994048;28;20037;-78
2023/04/27 09:20:54;;;;;;;6.32;3.10;;;12.20;99.90;;;;;;4994728;28;20049;-78
2023/04/27 09:23:36;;;;;;;6.70;3.55;;;12.30;99.90;;;;;;4993990;28;20113;-77
2023/04/27 09:26:09;;;;;;;6.25;2.88;;;12.40;99.90;;;;;;4993457;28;20117;-78
2023/04/27 09:28:38;;;;;;;6.53;2.88;;;12.40;99.90;;;;;;4995207;28;20049;-77
2023/04/27 09:31:04;;;;;;;7.55;3.45;;;12.50;99.90;;;;;;4992904;28;20042;-78
2023/04/27 09:33:34;;;;;;;6.90;3.38;;;12.60;99.90;;;;;;4994011;28;20022;-78
2023/04/27 09:36:02;;;;;;;11.63;3.03;;;12.70;99.90;;;;;;4993216;28;20033;-76
2023/04/27 09:38:28;;;;;;;8.07;2.90;;;12.80;99.90;;;;;;4994895;28;20022;-78
2023/04/27 09:40:55;;;;;;;5.30;2.85;;;12.90;99.90;;;;;;4992674;28;20034;-78
2023/04/27 09:43:22;;;;;;;6.45;2.83;;;12.80;99.90;;;;;;4993652;28;20029;-77
2023/04/27 09:45:48;;;;;;;3.80;2.70;;;12.80;99.90;;;;;;4993556;28;20026;-77
2023/04/27 09:48:14;;;;;;;7.45;2.90;;;12.80;99.90;;;;;;4994356;28;20401;-77
2023/04/27 09:50:43;;;;;;;7.32;3.00;;;12.70;99.90;;;;;;4994351;28;20102;-77
2023/04/27 09:53:14;;;;;;;9.48;3.20;;;12.70;99.90;;;;;;4992455;28;20586;-77
2023/04/27 09:55:49;;;;;;;7.55;2.85;;;12.70;99.90;;;;;;4993566;28;20361;-77
2023/04/27 09:59:05;;;;;;;9.00;2.95;;;12.70;99.90;;;;;;4993339;28;20026;-78
2023/04/27 10:01:54;;;;;;;8.20;3.20;;;12.90;99.90;;;;;;5003773;28;20130;-77
2023/04/27 10:04:44;;;;;;;8.10;3.85;;;12.90;99.90;;;;;;4994724;28;20034;-77
2023/04/27 10:07:13;;;;;;;7.40;3.70;;;13.00;99.90;;;;;;4994300;28;20033;-78
2023/04/27 10:09:48;;;;;;;6.60;4.43;;;13.00;99.90;;;;;;4993333;28;20022;-77
2023/04/27 10:12:22;;;;;;;7.13;3.65;;;13.00;99.90;;;;;;4992602;28;20503;-77
2023/04/27 10:14:52;;;;;;;7.78;4.15;;;12.90;99.90;;;;;;4993232;28;20030;-77
2023/04/27 10:17:32;;;;;;;6.65;3.63;;;13.10;99.90;;;;;;4992909;28;20022;-77
2023/04/27 10:20:07;;;;;;;6.90;3.90;;;13.20;99.90;;;;;;4993595;28;20022;-77
2023/04/27 10:22:47;;;;;;;8.88;4.40;;;13.20;99.90;;;;;;4993433;28;20042;-78
2023/04/27 10:25:15;;;;;;;9.48;4.78;;;13.40;99.90;;;;;;4993918;28;20034;-77
2023/04/27 10:27:41;;;;;;;11.38;4.90;;;13.50;99.90;;;;;;4993933;28;20027;-77
2023/04/27 10:30:11;;;;;;;13.60;5.38;;;13.50;99.90;;;;;;4992107;28;20034;-77
2023/04/27 10:32:37;;;;;;;15.10;4.93;;;13.70;99.90;;;;;;4992411;28;20039;-78
2023/04/27 10:35:08;;;;;;;9.82;4.75;;;13.70;99.90;;;;;;4991502;28;20499;-77
2023/04/27 10:37:41;;;;;;;9.57;4.10;;;13.80;99.70;;;;;;4993016;28;20022;-78
2023/04/27 10:40:18;;;;;;;7.40;3.63;;;13.80;99.00;;;;;;4993539;28;20049;-77
2023/04/27 10:42:45;;;;;;;3.60;2.60;;;14.00;99.30;;;;;;4993686;28;20026;-78
2023/04/27 10:45:14;;;;;;;10.77;3.13;;;14.10;98.80;;;;;;4989541;28;20030;-80
2023/04/27 10:47:42;;;;;;;4.78;2.58;;;14.20;98.10;;;;;;4989693;28;20035;-78
2023/04/27 10:50:13;;;;;;;7.00;3.22;;;14.30;96.80;;;;;;4992266;28;20026;-77
2023/04/27 10:52:42;;;;;;;8.95;3.92;;;14.30;95.70;;;;;;4992137;28;20499;-77
2023/04/27 10:55:17;;;;;;;9.60;3.45;;;14.30;95.40;;;;;;4991783;28;20129;-78
2023/04/27 10:57:51;;;;;;;6.30;3.28;;;14.40;97.30;;;;;;4991954;28;20113;-78
2023/04/27 11:00:37;;;;;;;6.10;2.70;;;14.40;95.90;;;;;;4991158;28;20041;-79
2023/04/27 11:03:10;;;;;;;9.30;3.15;;;14.50;96.10;;;;;;4992314;28;20034;-79
2023/04/27 11:05:36;;;;;;;7.55;3.15;;;14.60;93.90;;;;;;4990558;28;20026;-80
2023/04/27 11:08:05;;;;;;;6.28;2.45;;;14.70;93.50;;;;;;4993319;28;20037;-80
2023/04/27 11:10:31;;;;;;;4.35;2.30;;;14.80;93.50;;;;;;4992424;28;20022;-78
2023/04/27 11:12:57;;;;;;;5.35;2.40;;;14.90;94.20;;;;;;4991576;28;20073;-77
2023/04/27 11:15:23;;;;;;;4.38;2.17;;;15.00;94.00;;;;;;4991948;28;20042;-81
2023/04/27 11:17:49;;;;;;;6.35;2.42;;;15.00;93.60;;;;;;4992616;28;20026;-82
2023/04/27 11:20:24;;;;;;;4.78;2.60;;;15.10;93.00;;;;;;4991420;28;20033;-82
2023/04/27 11:22:50;;;;;;;5.57;2.80;;;15.20;92.30;;;;;;4973659;28;20547;-80
2023/04/27 11:25:15;;;;;;;4.82;2.20;;;15.30;91.40;;;;;;4973036;28;20034;-80
2023/04/27 11:27:41;;;;;;;4.35;2.35;;;15.40;90.80;;;;;;4978204;28;20026;-81
2023/04/27 11:30:20;;;;;;;3.35;1.80;;;15.50;91.60;;;;;;4993624;28;20033;-80
2023/04/27 11:32:46;;;;;;;4.78;2.05;;;15.60;90.70;;;;;;4994008;28;20030;-80
2023/04/27 11:35:12;;;;;;;5.80;2.22;;;15.70;90.00;;;;;;4993334;28;20419;-79
2023/04/27 11:37:38;;;;;;;6.53;2.78;;;15.70;89.30;;;;;;4992569;28;20026;-80
2023/04/27 11:40:04;;;;;;;5.18;2.10;;;15.80;90.00;;;;;;4993336;28;20464;-80
2023/04/27 11:42:32;;;;;;;4.97;2.00;;;15.80;90.40;;;;;;4993378;28;20035;-80
2023/04/27 11:44:59;;;;;;;3.88;1.77;;;15.90;92.00;;;;;;4992517;28;20027;-80
2023/04/27 11:47:29;;;;;;;3.17;1.90;;;16.00;92.00;;;;;;4973466;28;20030;-81
2023/04/27 11:49:57;;;;;;;5.03;2.10;;;16.00;90.40;;;;;;4979863;28;20595;-80
2023/04/27 11:52:31;;;;;;;8.02;2.03;;;16.00;90.40;;;;;;4992039;28;20460;-80
2023/04/27 11:54:58;;;;;;;4.32;1.73;;;16.00;90.90;;;;;;4992551;28;20096;-79
2023/04/27 11:57:27;;;;;;;4.93;1.90;;;16.00;91.90;;;;;;4992339;28;20033;-80
2023/04/27 11:59:55;;;;;;;7.00;1.92;;;16.20;91.50;;;;;;4992576;28;20018;-81
2023/04/27 12:02:21;;;;;;;5.20;1.85;;;16.40;93.00;;;;;;4993121;28;20030;-81
2023/04/27 12:04:50;;;;;;;4.40;1.88;;;16.50;90.50;;;;;;4996324;28;20030;-81
2023/04/27 12:07:16;;;;;;;5.82;2.10;;;16.60;90.30;;;;;;4996747;28;20033;-81
2023/04/27 12:09:42;;;;;;;3.70;1.73;;;16.80;90.40;;;;;;4997305;28;20034;-81
2023/04/27 12:12:09;;;;;;;2.80;1.60;;;17.00;87.60;;;;;;4996442;28;20034;-82
2023/04/27 12:14:34;;;;;;;6.00;2.08;;;17.20;84.80;;;;;;4996130;28;20034;-82
2023/04/27 12:17:00;;;;;;;2.70;1.63;;;17.30;85.20;;;;;;4996396;28;20023;-82
2023/04/27 12:19:26;;;;;;;4.00;1.40;;;17.40;84.20;;;;;;4978423;28;20027;-83
2023/04/27 12:21:52;;;;;;;4.63;1.60;;;17.50;82.10;;;;;;4991861;28;20061;-82
2023/04/27 12:24:18;;;;;;;7.25;1.90;;;17.50;79.10;;;;;;4995743;28;20034;-82
2023/04/27 12:26:45;;;;;;;3.22;1.60;;;17.50;79.70;;;;;;4997264;28;20460;-82
2023/04/27 12:29:11;;;;;;;4.35;1.63;;;17.50;80.70;;;;;;4995463;28;20463;-82
2023/04/27 12:31:36;;;;;;;2.17;1.50;;;17.60;82.30;;;;;;4995905;28;20034;-83
2023/04/27 12:34:02;;;;;;;5.95;1.70;;;17.70;78.30;;;;;;4995414;28;20033;-83
2023/04/27 12:36:28;;;;;;;3.92;1.90;;;17.70;77.70;;;;;;4995801;28;20380;-83
2023/04/27 12:38:57;;;;;;;3.83;1.63;;;17.80;78.30;;;;;;4995809;28;20096;-83
2023/04/27 12:41:23;;;;;;;5.32;1.60;;;17.90;77.20;;;;;;4985380;28;20027;-83
2023/04/27 12:43:50;;;;;;;4.82;1.80;;;18.10;79.90;;;;;;4976491;28;20026;-83
2023/04/27 12:46:17;;;;;;;5.28;1.60;;;18.20;78.70;;;;;;4976088;28;20381;-82
2023/04/27 12:48:43;;;;;;;3.88;1.92;;;18.30;77.60;;;;;;5005733;28;20027;-83
2023/04/27 12:51:08;;;;;;;4.28;1.67;;;18.50;79.00;;;;;;4995183;28;20104;-83
2023/04/27 12:53:34;;;;;;;4.93;1.80;;;18.60;75.70;;;;;;4995829;28;20329;-83
2023/04/27 12:56:01;;;;;;;3.95;1.50;;;18.70;76.50;;;;;;4996671;28;20040;-81
2023/04/27 12:58:27;;;;;;;5.05;1.83;;;18.80;74.00;;;;;;4995211;28;20484;-82
2023/04/27 13:00:56;;;;;;;6.70;1.70;;;18.90;71.10;;;;;;4994428;28;20120;-84
2023/04/27 13:03:22;;;;;;;4.70;1.60;;;18.90;71.60;;;;;;4995732;28;20026;-80
2023/04/27 13:05:48;;;;;;;2.95;1.70;;;19.10;70.10;;;;;;4994944;28;20080;-81
2023/04/27 13:08:14;;;;;;;2.03;1.20;;;19.20;70.20;;;;;;4989792;28;20026;-80
2023/04/27 13:10:40;;;;;;;3.33;1.65;;;19.40;69.30;;;;;;4995356;28;20464;-81
2023/04/27 13:13:06;;;;;;;2.33;1.25;;;19.70;68.00;;;;;;4993827;28;20383;-79
2023/04/27 13:15:32;;;;;;;3.92;1.60;;;19.70;66.90;;;;;;4993871;28;20022;-80
2023/04/27 13:17:58;;;;;;;4.30;1.30;;;19.90;66.30;;;;;;4993813;28;20167;-79
2023/04/27 13:20:23;;;;;;;4.13;1.50;;;20.00;65.20;;;;;;4994023;28;20022;-80
2023/04/27 13:22:49;;;;;;;2.45;1.52;;;20.20;65.30;;;;;;4994189;28;20034;-79
2023/04/27 13:25:15;;;;;;;1.90;1.20;;;20.30;63.70;;;;;;4994874;28;20072;-80
2023/04/27 13:27:41;;;;;;;2.10;1.02;;;20.50;65.50;;;;;;4994228;28;20018;-80
2023/04/27 13:30:07;;;;;;;3.55;1.30;;;20.70;64.50;;;;;;4992783;28;20080;-80
2023/04/27 13:32:33;;;;;;;3.25;1.42;;;21.10;63.10;;;;;;4994600;28;20038;-80
2023/04/27 13:34:58;;;;;;;2.17;1.17;;;21.30;61.60;;;;;;4994558;28;20026;-80
2023/04/27 13:37:24;;;;;;;3.10;1.30;;;21.60;61.70;;;;;;4994613;28;20108;-80
2023/04/27 13:39:50;;;;;;;4.68;1.40;;;21.70;59.90;;;;;;4993679;28;20026;-81
2023/04/27 13:42:16;;;;;;;2.92;1.30;;;21.90;58.90;;;;;;4994029;28;20030;-81